KSGF METAR and TAF | Updated Today

KSGF METAR

Springfield Branson National Airport

Observation time: 40 min. ago

KSGF 292352Z 22005KT 10SM CLR 12/03 A2995 RMK AO2 SLP146 T01170033 10178 20117 53001

Need help? Read our tutorial on how to read METARs or read the parsed version below.

Springfield Branson National Airport (KSGF) METAR

  • Weather conditions on Mon, 29 Nov 2021 23:52:00 +0000 (40 min. ago):
  • Present conditions: Dry
  • Clouds: Clear skies
  • Visibility: 16093 meters
  • Wind: 220 degrees at 5 knots
  • Temperature: 12 celsius
  • Dew point: 3 celsius
  • Pressure: 29.95 inHg
  • Remarks: AO2 SLP146 T01170033 10178 20117 53001


Useful to know...

KSGF TAF

Springfield Branson National Airport

KSGF 292320Z 3000/3024 21012KT P6SM SCT250 FM300900 VRB04KT P6SM SKC FM301600 08008KT P6SM SKC
Observation time: 72 min. ago
Need help? Read our tutorial on how to read TAFs or read the parsed version below.

Parsed version of TAF for Springfield Branson National Airport (KSGF)

  • From 30 November at 00:00 UTC, to day 30 of the month at 24:00 UTC
  • Clouds: Scattered at 7620 meters
  • Wind: 210 degrees at 12
  • From day 30 of the month at 09:00 UTC
  • Clouds: No significant changes expected
  • Wind: Variable at 4
  • From day 30 of the month at 16:00 UTC
  • Clouds: No significant changes expected
  • Wind: 80 degrees at 8

Airports near KSGF